createdAt,value
2019-03-21T00:00:23.283Z,1028.84
2019-03-21T00:01:23.241Z,1028.86
2019-03-21T00:02:23.204Z,1028.90
2019-03-21T00:03:23.169Z,1028.88
2019-03-21T00:04:23.160Z,1028.90
2019-03-21T00:05:23.144Z,1028.92
2019-03-21T00:06:23.139Z,1028.91
2019-03-21T00:07:23.178Z,1028.90
2019-03-21T00:08:23.135Z,1028.90
2019-03-21T00:09:23.107Z,1028.90
2019-03-21T00:10:23.095Z,1028.94
2019-03-21T00:11:23.112Z,1028.89
2019-03-21T00:12:23.071Z,1028.88
2019-03-21T00:13:23.130Z,1028.92
2019-03-21T00:14:23.093Z,1028.92
2019-03-21T00:15:23.040Z,1028.95
2019-03-21T00:16:23.043Z,1028.95
2019-03-21T00:17:23.018Z,1028.92
2019-03-21T00:18:23.078Z,1028.98
2019-03-21T00:19:22.994Z,1028.99
2019-03-21T00:20:22.989Z,1028.97
2019-03-21T00:21:23.006Z,1028.99
2019-03-21T00:22:22.965Z,1029.04
2019-03-21T00:23:22.975Z,1029.05
2019-03-21T00:24:22.944Z,1029.08
2019-03-21T00:25:22.969Z,1029.05
2019-03-21T00:26:22.920Z,1029.00
2019-03-21T00:27:22.916Z,1029.02
2019-03-21T00:28:22.934Z,1029.02
2019-03-21T00:29:22.912Z,1029.05
2019-03-21T00:30:22.888Z,1029.04
2019-03-21T00:31:22.862Z,1029.03
2019-03-21T00:32:22.854Z,1029.07
2019-03-21T00:33:22.860Z,1029.11
2019-03-21T00:34:22.856Z,1029.07
2019-03-21T00:35:22.820Z,1029.04
2019-03-21T00:36:22.812Z,1029.06
2019-03-21T00:37:22.800Z,1029.08
2019-03-21T00:38:22.828Z,1029.05
2019-03-21T00:39:32.391Z,1029.02
2019-03-21T00:40:23.762Z,1028.99
2019-03-21T00:41:22.766Z,1029.03
2019-03-21T00:42:22.767Z,1029.05
2019-03-21T00:43:22.735Z,1029.04
2019-03-21T00:44:22.750Z,1029.03
2019-03-21T00:45:22.762Z,1029.04
2019-03-21T00:46:22.701Z,1029.03
2019-03-21T00:47:22.694Z,1029.01
2019-03-21T00:48:22.695Z,1029.00
2019-03-21T00:49:22.666Z,1028.99
2019-03-21T00:50:22.683Z,1028.91
2019-03-21T00:51:22.697Z,1028.96
2019-03-21T00:52:22.636Z,1029.01
2019-03-21T00:53:22.638Z,1029.02
2019-03-21T00:54:22.619Z,1029.05
2019-03-21T00:55:22.624Z,1029.03
2019-03-21T00:56:23.961Z,1029.03
2019-03-21T00:57:22.661Z,1029.01
2019-03-21T00:58:22.585Z,1028.98
2019-03-21T00:59:22.565Z,1028.98
2019-03-21T01:00:22.578Z,1029.03
2019-03-21T01:01:22.534Z,1028.96
2019-03-21T01:02:22.530Z,1028.97
2019-03-21T01:03:22.519Z,1028.94
2019-03-21T01:04:22.504Z,1028.99
2019-03-21T01:05:22.522Z,1028.97
2019-03-21T01:06:22.490Z,1028.94
2019-03-21T01:07:22.473Z,1028.95
2019-03-21T01:08:22.466Z,1028.91
2019-03-21T01:09:22.484Z,1028.95
2019-03-21T01:10:22.446Z,1028.94
2019-03-21T01:11:22.453Z,1028.90
2019-03-21T01:12:22.431Z,1028.91
2019-03-21T01:13:22.408Z,1028.90
2019-03-21T01:14:29.666Z,1028.96
2019-03-21T01:15:23.404Z,1028.92
2019-03-21T01:16:22.400Z,1028.88
2019-03-21T01:17:22.409Z,1028.91
2019-03-21T01:18:22.375Z,1028.92
2019-03-21T01:19:22.341Z,1028.87
2019-03-21T01:20:22.329Z,1028.91
2019-03-21T01:21:22.341Z,1028.88
2019-03-21T01:22:22.348Z,1028.82
2019-03-21T01:23:22.305Z,1028.86
2019-03-21T01:24:22.283Z,1028.88
2019-03-21T01:25:22.300Z,1028.86
2019-03-21T01:26:22.295Z,1028.84
2019-03-21T01:27:22.257Z,1028.81
2019-03-21T01:28:22.262Z,1028.86
2019-03-21T01:29:22.235Z,1028.85
2019-03-21T01:30:22.224Z,1028.87
2019-03-21T01:31:22.253Z,1028.88
2019-03-21T01:32:22.219Z,1028.88
2019-03-21T01:33:22.202Z,1028.85
2019-03-21T01:34:22.175Z,1028.87
2019-03-21T01:35:22.174Z,1028.85
2019-03-21T01:36:22.163Z,1028.88
2019-03-21T01:37:22.171Z,1028.88
2019-03-21T01:38:22.148Z,1028.89
2019-03-21T01:39:22.163Z,1028.88
2019-03-21T01:40:22.111Z,1028.83
2019-03-21T01:41:22.102Z,1028.87
2019-03-21T01:42:22.100Z,1028.87
2019-03-21T01:43:22.108Z,1028.86
2019-03-21T01:44:22.079Z,1028.84
2019-03-21T01:45:22.055Z,1028.85
2019-03-21T01:46:22.044Z,1028.87
2019-03-21T01:47:22.036Z,1028.91
2019-03-21T01:48:22.044Z,1028.91
2019-03-21T01:49:22.039Z,1028.94
2019-03-21T01:50:22.023Z,1028.92
2019-03-21T01:51:22.000Z,1028.96
2019-03-21T01:52:21.987Z,1028.92
2019-03-21T01:53:22.022Z,1028.93
2019-03-21T01:54:21.958Z,1028.93
2019-03-21T01:55:21.970Z,1028.92
2019-03-21T01:56:21.937Z,1028.91
2019-03-21T01:57:21.933Z,1028.90
2019-03-21T01:58:22.009Z,1028.93
2019-03-21T01:59:21.914Z,1028.87
2019-03-21T02:00:21.903Z,1028.86
2019-03-21T02:01:29.465Z,1028.83
2019-03-21T02:02:29.423Z,1028.84
2019-03-21T02:03:21.875Z,1028.86
2019-03-21T02:04:21.886Z,1028.81
2019-03-21T02:05:21.871Z,1028.79
2019-03-21T02:06:21.856Z,1028.79
2019-03-21T02:07:21.820Z,1028.81
2019-03-21T02:08:21.810Z,1028.80
2019-03-21T02:09:21.818Z,1028.76
2019-03-21T02:10:21.782Z,1028.84
2019-03-21T02:11:21.774Z,1028.78
2019-03-21T02:12:21.765Z,1028.78
2019-03-21T02:13:21.776Z,1028.84
2019-03-21T02:14:21.774Z,1028.80
2019-03-21T02:15:29.275Z,1028.81
2019-03-21T02:16:21.722Z,1028.78
2019-03-21T02:17:21.747Z,1028.77
2019-03-21T02:18:21.693Z,1028.80
2019-03-21T02:19:30.397Z,1028.77
2019-03-21T02:20:29.218Z,1028.74
2019-03-21T02:21:29.225Z,1028.74
2019-03-21T02:22:29.204Z,1028.73
2019-03-21T02:23:30.194Z,1028.75
2019-03-21T02:24:29.214Z,1028.77
2019-03-21T02:25:30.528Z,1028.79
2019-03-21T02:26:29.153Z,1028.72
2019-03-21T02:27:29.138Z,1028.73
2019-03-21T02:28:21.622Z,1028.69
2019-03-21T02:29:21.633Z,1028.67
2019-03-21T02:30:30.591Z,1028.70
2019-03-21T02:31:21.561Z,1028.69
2019-03-21T02:32:21.551Z,1028.70
2019-03-21T02:33:29.128Z,1028.73
2019-03-21T02:34:29.076Z,1028.68
2019-03-21T02:35:21.519Z,1028.69
2019-03-21T02:36:30.145Z,1028.68
2019-03-21T02:37:29.028Z,1028.66
2019-03-21T02:38:29.043Z,1028.67
2019-03-21T02:39:29.033Z,1028.70
2019-03-21T02:40:28.999Z,1028.66
2019-03-21T02:41:31.303Z,1028.64
2019-03-21T02:42:28.979Z,1028.65
2019-03-21T02:43:29.005Z,1028.62
2019-03-21T02:44:28.956Z,1028.66
2019-03-21T02:45:28.959Z,1028.64
2019-03-21T02:46:28.932Z,1028.62
2019-03-21T02:47:30.417Z,1028.62
2019-03-21T02:48:28.977Z,1028.60
2019-03-21T02:49:28.911Z,1028.61
2019-03-21T02:50:21.385Z,1028.60
2019-03-21T02:51:21.348Z,1028.60
2019-03-21T02:52:21.349Z,1028.61
2019-03-21T02:53:21.348Z,1028.63
2019-03-21T02:54:21.313Z,1028.63
2019-03-21T02:55:21.317Z,1028.66
2019-03-21T02:56:21.290Z,1028.61
2019-03-21T02:57:21.300Z,1028.59
2019-03-21T02:58:21.271Z,1028.63
2019-03-21T02:59:21.255Z,1028.66
2019-03-21T03:00:21.253Z,1028.61
2019-03-21T03:01:21.235Z,1028.62
2019-03-21T03:02:21.249Z,1028.63
2019-03-21T03:03:21.232Z,1028.64
2019-03-21T03:04:21.213Z,1028.62
2019-03-21T03:05:21.191Z,1028.60
2019-03-21T03:06:21.181Z,1028.59
2019-03-21T03:07:21.179Z,1028.62
2019-03-21T03:08:21.233Z,1028.59
2019-03-21T03:09:21.148Z,1028.63
2019-03-21T03:10:21.146Z,1028.56
2019-03-21T03:11:21.186Z,1028.63
2019-03-21T03:12:21.140Z,1028.62
2019-03-21T03:13:21.119Z,1028.58
2019-03-21T03:14:21.097Z,1028.58
2019-03-21T03:15:23.235Z,1028.56
2019-03-21T03:16:21.075Z,1028.58
2019-03-21T03:17:21.088Z,1028.54
2019-03-21T03:18:21.067Z,1028.56
2019-03-21T03:19:21.040Z,1028.56
2019-03-21T03:20:21.067Z,1028.66
2019-03-21T03:21:21.016Z,1028.59
2019-03-21T03:22:21.029Z,1028.55
2019-03-21T03:23:21.027Z,1028.56
2019-03-21T03:24:20.986Z,1028.57
2019-03-21T03:25:20.994Z,1028.57
2019-03-21T03:26:20.967Z,1028.60
2019-03-21T03:27:20.954Z,1028.56
2019-03-21T03:28:20.994Z,1028.61
2019-03-21T03:29:20.949Z,1028.57
2019-03-21T03:30:21.006Z,1028.57
2019-03-21T03:31:20.913Z,1028.60
2019-03-21T03:32:20.913Z,1028.53
2019-03-21T03:33:20.975Z,1028.54
2019-03-21T03:34:20.942Z,1028.51
2019-03-21T03:35:20.877Z,1028.56
2019-03-21T03:36:20.866Z,1028.63
2019-03-21T03:37:20.857Z,1028.58
2019-03-21T03:38:20.835Z,1028.62
2019-03-21T03:39:20.842Z,1028.62
2019-03-21T03:40:20.868Z,1028.63
2019-03-21T03:41:20.813Z,1028.63
2019-03-21T03:42:20.794Z,1028.67
2019-03-21T03:43:20.827Z,1028.64
2019-03-21T03:44:20.797Z,1028.67
2019-03-21T03:45:20.756Z,1028.67
2019-03-21T03:46:20.760Z,1028.65
2019-03-21T03:47:20.746Z,1028.67
2019-03-21T03:48:20.835Z,1028.71
2019-03-21T03:49:20.737Z,1028.69
2019-03-21T03:50:20.713Z,1028.73
2019-03-21T03:51:20.725Z,1028.75
2019-03-21T03:52:20.686Z,1028.78
2019-03-21T03:53:20.676Z,1028.76
2019-03-21T03:54:20.741Z,1028.77
2019-03-21T03:55:20.745Z,1028.80
2019-03-21T03:56:20.664Z,1028.77
2019-03-21T03:57:20.635Z,1028.74
2019-03-21T03:58:20.629Z,1028.81
2019-03-21T03:59:20.615Z,1028.80
2019-03-21T04:00:20.635Z,1028.82
2019-03-21T04:01:20.602Z,1028.77
2019-03-21T04:02:20.586Z,1028.73
2019-03-21T04:03:20.593Z,1028.78
2019-03-21T04:04:20.571Z,1028.80
2019-03-21T04:05:20.596Z,1028.82
2019-03-21T04:06:20.541Z,1028.81
2019-03-21T04:07:20.553Z,1028.80
2019-03-21T04:08:20.514Z,1028.78
2019-03-21T04:09:20.520Z,1028.84
2019-03-21T04:10:20.519Z,1028.82
2019-03-21T04:11:20.500Z,1028.81
2019-03-21T04:12:20.476Z,1028.83
2019-03-21T04:13:20.460Z,1028.85
2019-03-21T04:14:20.524Z,1028.84
2019-03-21T04:15:20.483Z,1028.85
2019-03-21T04:16:20.442Z,1028.85
2019-03-21T04:17:20.424Z,1028.83
2019-03-21T04:18:20.404Z,1028.88
2019-03-21T04:19:20.395Z,1028.86
2019-03-21T04:20:20.438Z,1028.87
2019-03-21T04:21:20.392Z,1028.90
2019-03-21T04:22:20.358Z,1028.91
2019-03-21T04:23:20.359Z,1028.88
2019-03-21T04:24:20.344Z,1028.92
2019-03-21T04:25:20.338Z,1028.91
2019-03-21T04:26:20.386Z,1028.89
2019-03-21T04:27:20.312Z,1028.89
2019-03-21T04:28:20.306Z,1028.86
2019-03-21T04:29:20.306Z,1028.95
2019-03-21T04:30:20.358Z,1028.90
2019-03-21T04:31:20.309Z,1028.93
2019-03-21T04:32:20.260Z,1028.96
2019-03-21T04:33:22.662Z,1028.94
2019-03-21T04:34:20.236Z,1028.89
2019-03-21T04:35:20.220Z,1028.87
2019-03-21T04:36:20.230Z,1028.85
2019-03-21T04:37:20.203Z,1028.90
2019-03-21T04:38:20.198Z,1028.88
2019-03-21T04:39:20.185Z,1028.89
2019-03-21T04:40:20.179Z,1028.87
2019-03-21T04:41:20.217Z,1028.88
2019-03-21T04:42:20.149Z,1028.88
2019-03-21T04:43:20.137Z,1028.87
2019-03-21T04:44:20.176Z,1028.87
2019-03-21T04:45:20.115Z,1028.84
2019-03-21T04:46:20.112Z,1028.86
2019-03-21T04:47:20.124Z,1028.82
2019-03-21T04:48:20.123Z,1028.85
2019-03-21T04:49:20.068Z,1028.86
2019-03-21T04:50:20.060Z,1028.88
2019-03-21T04:51:20.054Z,1028.88
2019-03-21T04:52:20.058Z,1028.92
2019-03-21T04:53:20.027Z,1028.94
2019-03-21T04:54:20.047Z,1028.88
2019-03-21T04:55:20.027Z,1028.90
2019-03-21T04:56:19.997Z,1028.93
2019-03-21T04:57:20.018Z,1028.92
2019-03-21T04:58:19.979Z,1028.91
2019-03-21T04:59:19.982Z,1028.93
2019-03-21T05:00:19.951Z,1028.88
2019-03-21T05:01:19.944Z,1028.96
2019-03-21T05:02:19.978Z,1028.96
2019-03-21T05:03:19.918Z,1028.90
2019-03-21T05:04:19.937Z,1028.98
2019-03-21T05:05:19.907Z,1028.94
2019-03-21T05:06:19.895Z,1028.88
2019-03-21T05:07:19.899Z,1028.93
2019-03-21T05:08:19.894Z,1028.90
2019-03-21T05:09:19.859Z,1028.92
2019-03-21T05:10:19.863Z,1028.95
2019-03-21T05:11:19.866Z,1028.94
2019-03-21T05:12:19.861Z,1028.93
2019-03-21T05:13:19.823Z,1028.92
2019-03-21T05:14:19.833Z,1028.99
2019-03-21T05:15:19.817Z,1028.96
2019-03-21T05:16:19.786Z,1028.96
2019-03-21T05:17:19.780Z,1028.94
2019-03-21T05:18:19.779Z,1028.96
2019-03-21T05:19:19.748Z,1028.99
2019-03-21T05:20:19.739Z,1028.99
2019-03-21T05:21:19.800Z,1029.01
2019-03-21T05:22:19.720Z,1028.98
2019-03-21T05:23:19.727Z,1028.99
2019-03-21T05:24:19.694Z,1028.98
2019-03-21T05:25:19.686Z,1028.99
2019-03-21T05:26:19.687Z,1029.03
2019-03-21T05:27:19.666Z,1029.01
2019-03-21T05:28:19.670Z,1029.05
2019-03-21T05:29:19.664Z,1029.07
2019-03-21T05:30:19.634Z,1029.08
2019-03-21T05:31:19.616Z,1029.03
2019-03-21T05:32:19.613Z,1029.07
2019-03-21T05:33:19.615Z,1029.08
2019-03-21T05:34:19.587Z,1029.08
2019-03-21T05:35:19.581Z,1029.10
2019-03-21T05:36:19.576Z,1029.12
2019-03-21T05:37:19.553Z,1029.17
2019-03-21T05:38:19.581Z,1029.18
2019-03-21T05:39:19.536Z,1029.22
2019-03-21T05:40:19.524Z,1029.19
2019-03-21T05:41:19.512Z,1029.18
2019-03-21T05:42:19.510Z,1029.18
2019-03-21T05:43:19.494Z,1029.24
2019-03-21T05:44:19.494Z,1029.18
2019-03-21T05:45:19.492Z,1029.21
2019-03-21T05:46:26.680Z,1029.20
2019-03-21T05:47:20.444Z,1029.23
2019-03-21T05:48:19.433Z,1029.20
2019-03-21T05:49:19.461Z,1029.21
2019-03-21T05:50:19.411Z,1029.24
2019-03-21T05:51:19.405Z,1029.22
2019-03-21T05:52:19.388Z,1029.20
2019-03-21T05:53:19.380Z,1029.18
2019-03-21T05:54:19.430Z,1029.20
2019-03-21T05:55:19.378Z,1029.21
2019-03-21T05:56:19.357Z,1029.24
2019-03-21T05:57:19.336Z,1029.22
2019-03-21T05:58:19.324Z,1029.25
2019-03-21T05:59:19.335Z,1029.25
2019-03-21T06:00:19.301Z,1029.27
2019-03-21T06:01:19.295Z,1029.26
2019-03-21T06:02:19.285Z,1029.24
2019-03-21T06:03:19.315Z,1029.30
2019-03-21T06:04:19.284Z,1029.26
2019-03-21T06:05:19.245Z,1029.17
2019-03-21T06:06:19.233Z,1029.22
2019-03-21T06:07:19.224Z,1029.21
2019-03-21T06:08:19.220Z,1029.26
2019-03-21T06:09:19.213Z,1029.27
2019-03-21T06:10:19.211Z,1029.29
2019-03-21T06:11:19.186Z,1029.27
2019-03-21T06:12:19.178Z,1029.32
2019-03-21T06:13:19.165Z,1029.30
2019-03-21T06:14:19.148Z,1029.29
2019-03-21T06:15:19.203Z,1029.31
2019-03-21T06:16:19.158Z,1029.26
2019-03-21T06:17:19.151Z,1029.29
2019-03-21T06:18:19.128Z,1029.31
2019-03-21T06:19:19.096Z,1029.28
2019-03-21T06:20:19.106Z,1029.36
2019-03-21T06:21:19.094Z,1029.36
2019-03-21T06:22:19.078Z,1029.34
2019-03-21T06:23:19.083Z,1029.38
2019-03-21T06:24:19.048Z,1029.38
2019-03-21T06:25:19.054Z,1029.41
2019-03-21T06:26:19.073Z,1029.39
2019-03-21T06:27:19.009Z,1029.37
2019-03-21T06:28:19.020Z,1029.40
2019-03-21T06:29:18.992Z,1029.41
2019-03-21T06:30:18.978Z,1029.42
2019-03-21T06:31:19.021Z,1029.44
2019-03-21T06:32:18.990Z,1029.45
2019-03-21T06:33:18.974Z,1029.45
2019-03-21T06:34:19.024Z,1029.45
2019-03-21T06:35:18.942Z,1029.41
2019-03-21T06:36:19.043Z,1029.46
2019-03-21T06:37:18.897Z,1029.44
2019-03-21T06:38:18.903Z,1029.43
2019-03-21T06:39:18.908Z,1029.47
2019-03-21T06:40:18.888Z,1029.45
2019-03-21T06:41:18.874Z,1029.45
2019-03-21T06:42:18.840Z,1029.44
2019-03-21T06:43:18.843Z,1029.44
2019-03-21T06:44:18.819Z,1029.44
2019-03-21T06:45:18.810Z,1029.42
2019-03-21T06:46:18.796Z,1029.40
2019-03-21T06:47:18.803Z,1029.39
2019-03-21T06:48:18.782Z,1029.38
2019-03-21T06:49:18.770Z,1029.41
2019-03-21T06:50:18.782Z,1029.44
2019-03-21T06:51:18.745Z,1029.37
2019-03-21T06:52:18.765Z,1029.43
2019-03-21T06:53:18.724Z,1029.42
2019-03-21T06:54:18.729Z,1029.46
2019-03-21T06:55:18.709Z,1029.47
2019-03-21T06:56:18.699Z,1029.46
2019-03-21T06:57:18.697Z,1029.44
2019-03-21T06:58:18.667Z,1029.50
2019-03-21T06:59:18.660Z,1029.44
2019-03-21T07:00:18.645Z,1029.44
2019-03-21T07:01:18.645Z,1029.40
2019-03-21T07:02:18.672Z,1029.42
2019-03-21T07:03:18.649Z,1029.38
2019-03-21T07:04:18.666Z,1029.41
2019-03-21T07:05:18.626Z,1029.39
2019-03-21T07:06:18.581Z,1029.42
2019-03-21T07:07:18.573Z,1029.39
2019-03-21T07:08:18.638Z,1029.37
2019-03-21T07:09:18.601Z,1029.39
2019-03-21T07:10:18.549Z,1029.39
2019-03-21T07:11:18.533Z,1029.39
2019-03-21T07:12:18.522Z,1029.39
2019-03-21T07:13:18.528Z,1029.39
2019-03-21T07:14:18.494Z,1029.39
2019-03-21T07:15:18.489Z,1029.40
2019-03-21T07:16:18.478Z,1029.39
2019-03-21T07:17:18.465Z,1029.37
2019-03-21T07:18:18.504Z,1029.40
2019-03-21T07:19:18.464Z,1029.41
2019-03-21T07:20:18.431Z,1029.43
2019-03-21T07:21:18.423Z,1029.42
2019-03-21T07:22:18.409Z,1029.43
2019-03-21T07:23:18.417Z,1029.42
2019-03-21T07:24:18.389Z,1029.38
2019-03-21T07:25:18.400Z,1029.42
2019-03-21T07:26:18.388Z,1029.35
2019-03-21T07:27:18.358Z,1029.37
2019-03-21T07:28:18.361Z,1029.35
2019-03-21T07:29:18.335Z,1029.34
2019-03-21T07:30:18.326Z,1029.42
2019-03-21T07:31:18.337Z,1029.34
2019-03-21T07:32:18.300Z,1029.41
2019-03-21T07:33:18.335Z,1029.47
2019-03-21T07:34:18.284Z,1029.45
2019-03-21T07:35:18.269Z,1029.44
2019-03-21T07:36:18.266Z,1029.44
2019-03-21T07:37:18.285Z,1029.43
2019-03-21T07:38:18.282Z,1029.45
2019-03-21T07:39:18.242Z,1029.45
2019-03-21T07:40:18.216Z,1029.42
2019-03-21T07:41:18.209Z,1029.46
2019-03-21T07:42:18.193Z,1029.50
2019-03-21T07:43:18.184Z,1029.50
2019-03-21T07:44:18.194Z,1029.48
2019-03-21T07:45:18.163Z,1029.50
2019-03-21T07:46:18.156Z,1029.45
2019-03-21T07:47:18.143Z,1029.43
2019-03-21T07:48:18.127Z,1029.45
2019-03-21T07:49:18.139Z,1029.43
2019-03-21T07:50:18.177Z,1029.43
2019-03-21T07:51:18.096Z,1029.46
2019-03-21T07:52:18.121Z,1029.42
2019-03-21T07:53:18.142Z,1029.45
2019-03-21T07:54:18.086Z,1029.48
2019-03-21T07:55:18.056Z,1029.40
2019-03-21T07:56:18.043Z,1029.44
2019-03-21T07:57:18.027Z,1029.38
2019-03-21T07:58:18.018Z,1029.40
2019-03-21T07:59:18.010Z,1029.42
2019-03-21T08:00:18.016Z,1029.39
2019-03-21T08:01:17.988Z,1029.41
2019-03-21T08:02:17.977Z,1029.36
2019-03-21T08:03:17.964Z,1029.36
2019-03-21T08:04:17.992Z,1029.35
2019-03-21T08:05:17.958Z,1029.33
2019-03-21T08:06:17.929Z,1029.31
2019-03-21T08:07:17.954Z,1029.31
2019-03-21T08:08:17.927Z,1029.34
2019-03-21T08:09:17.897Z,1029.37
2019-03-21T08:10:17.909Z,1029.30
2019-03-21T08:11:17.880Z,1029.31
2019-03-21T08:12:17.866Z,1029.29
2019-03-21T08:13:17.868Z,1029.28
2019-03-21T08:14:17.865Z,1029.30
2019-03-21T08:15:17.848Z,1029.30
2019-03-21T08:16:17.821Z,1029.25
2019-03-21T08:17:17.807Z,1029.29
2019-03-21T08:18:17.798Z,1029.28
2019-03-21T08:19:17.790Z,1029.31
2019-03-21T08:20:17.818Z,1029.23
2019-03-21T08:21:17.773Z,1029.29
2019-03-21T08:22:17.754Z,1029.29
2019-03-21T08:23:17.744Z,1029.30
2019-03-21T08:24:17.731Z,1029.33
2019-03-21T08:25:17.799Z,1029.36
2019-03-21T08:26:17.744Z,1029.35
2019-03-21T08:27:17.731Z,1029.35
2019-03-21T08:28:17.689Z,1029.35
2019-03-21T08:29:17.704Z,1029.31
2019-03-21T08:30:17.666Z,1029.35
2019-03-21T08:31:17.739Z,1029.35
2019-03-21T08:32:17.647Z,1029.36
2019-03-21T08:33:17.696Z,1029.36
2019-03-21T08:34:17.649Z,1029.37
2019-03-21T08:35:17.673Z,1029.38
2019-03-21T08:36:17.619Z,1029.34
2019-03-21T08:37:17.708Z,1029.34
2019-03-21T08:38:17.587Z,1029.34
2019-03-21T08:39:17.581Z,1029.32
2019-03-21T08:40:17.560Z,1029.29
2019-03-21T08:41:17.635Z,1029.27
2019-03-21T08:42:25.086Z,1029.28
2019-03-21T08:43:17.529Z,1029.31
2019-03-21T08:44:17.518Z,1029.30
2019-03-21T08:45:17.574Z,1029.31
2019-03-21T08:46:17.493Z,1029.38
2019-03-21T08:47:17.502Z,1029.37
2019-03-21T08:48:17.526Z,1029.35
2019-03-21T08:49:17.467Z,1029.33
2019-03-21T08:50:17.452Z,1029.30
2019-03-21T08:51:17.445Z,1029.32
2019-03-21T08:52:17.465Z,1029.32
2019-03-21T08:53:17.421Z,1029.32
2019-03-21T08:54:17.415Z,1029.32
2019-03-21T08:55:17.396Z,1029.36
2019-03-21T08:56:17.394Z,1029.30
2019-03-21T08:57:17.397Z,1029.31
2019-03-21T08:58:17.364Z,1029.34
2019-03-21T08:59:17.354Z,1029.33
2019-03-21T09:00:17.339Z,1029.31
2019-03-21T09:01:17.342Z,1029.28
2019-03-21T09:02:17.319Z,1029.27
2019-03-21T09:03:25.966Z,1029.26
2019-03-21T09:04:17.300Z,1029.27
2019-03-21T09:05:17.287Z,1029.24
2019-03-21T09:06:17.277Z,1029.21
2019-03-21T09:07:17.273Z,1029.22
2019-03-21T09:08:17.269Z,1029.22
2019-03-21T09:09:17.241Z,1029.25
2019-03-21T09:10:17.234Z,1029.22
2019-03-21T09:11:17.226Z,1029.21
2019-03-21T09:12:17.217Z,1029.23
2019-03-21T09:13:17.233Z,1029.23
2019-03-21T09:14:17.188Z,1029.21
2019-03-21T09:15:17.199Z,1029.24
2019-03-21T09:16:17.171Z,1029.18
2019-03-21T09:17:17.154Z,1029.14
2019-03-21T09:18:17.163Z,1029.20
2019-03-21T09:19:17.138Z,1029.18
2019-03-21T09:20:18.967Z,1029.19
2019-03-21T09:21:19.923Z,1029.23
2019-03-21T09:22:17.114Z,1029.22
2019-03-21T09:23:17.113Z,1029.21
2019-03-21T09:24:17.085Z,1029.22
2019-03-21T09:25:17.070Z,1029.24
2019-03-21T09:26:17.062Z,1029.24
2019-03-21T09:27:17.049Z,1029.22
2019-03-21T09:28:17.043Z,1029.21
2019-03-21T09:29:17.052Z,1029.25
2019-03-21T09:30:17.015Z,1029.16
2019-03-21T09:31:17.007Z,1029.15
2019-03-21T09:32:17.011Z,1029.19
2019-03-21T09:33:16.979Z,1029.17
2019-03-21T09:34:16.992Z,1029.15
2019-03-21T09:35:16.965Z,1029.12
2019-03-21T09:36:16.947Z,1029.14
2019-03-21T09:37:16.939Z,1029.11
2019-03-21T09:38:16.934Z,1029.09
2019-03-21T09:39:16.939Z,1029.07
2019-03-21T09:40:16.905Z,1029.08
2019-03-21T09:41:16.893Z,1029.12
2019-03-21T09:42:16.886Z,1029.14
2019-03-21T09:43:16.871Z,1029.09
2019-03-21T09:44:16.864Z,1029.11
2019-03-21T09:45:16.877Z,1029.08
2019-03-21T09:46:16.839Z,1029.10
2019-03-21T09:47:16.831Z,1029.06
2019-03-21T09:48:16.819Z,1029.07
2019-03-21T09:49:16.804Z,1029.10
2019-03-21T09:50:16.813Z,1029.15
2019-03-21T09:51:16.786Z,1029.17
2019-03-21T09:52:16.778Z,1029.19
2019-03-21T09:53:16.770Z,1029.06
2019-03-21T09:54:16.751Z,1029.06
2019-03-21T09:55:16.765Z,1029.03
2019-03-21T09:56:16.734Z,1029.03
2019-03-21T09:57:16.718Z,1028.99
2019-03-21T09:58:16.719Z,1029.05
2019-03-21T09:59:16.702Z,1028.99
2019-03-21T10:00:16.711Z,1029.06
2019-03-21T10:01:16.675Z,1029.05
2019-03-21T10:02:16.666Z,1029.02
2019-03-21T10:03:16.658Z,1029.02
2019-03-21T10:04:16.642Z,1028.99
2019-03-21T10:05:16.681Z,1029.01
2019-03-21T10:06:16.624Z,1029.06
2019-03-21T10:07:16.613Z,1029.03
2019-03-21T10:08:16.612Z,1029.04
2019-03-21T10:09:16.586Z,1029.01
2019-03-21T10:10:16.609Z,1029.08
2019-03-21T10:11:16.589Z,1029.03
2019-03-21T10:12:16.557Z,1029.12
2019-03-21T10:13:16.548Z,1029.10
2019-03-21T10:14:16.534Z,1029.08
2019-03-21T10:15:16.531Z,1029.03
2019-03-21T10:16:16.548Z,1029.01
2019-03-21T10:17:16.630Z,1029.05
2019-03-21T10:18:16.498Z,1029.03
2019-03-21T10:19:16.481Z,1029.03
2019-03-21T10:20:16.475Z,1029.08
2019-03-21T10:21:16.502Z,1029.03
2019-03-21T10:22:16.455Z,1029.06
2019-03-21T10:23:16.442Z,1029.02
2019-03-21T10:24:16.434Z,1029.08
2019-03-21T10:25:16.431Z,1029.11
2019-03-21T10:26:16.438Z,1029.12
2019-03-21T10:27:16.400Z,1029.12
2019-03-21T10:28:16.417Z,1029.08
2019-03-21T10:29:16.379Z,1029.11
2019-03-21T10:30:16.370Z,1029.13
2019-03-21T10:31:16.377Z,1029.11
2019-03-21T10:32:16.373Z,1029.08
2019-03-21T10:33:16.346Z,1029.10
2019-03-21T10:34:16.327Z,1029.09
2019-03-21T10:35:16.321Z,1029.13
2019-03-21T10:36:16.347Z,1029.07
2019-03-21T10:37:16.330Z,1029.08
2019-03-21T10:38:16.300Z,1029.07
2019-03-21T10:39:16.301Z,1029.05
2019-03-21T10:40:16.271Z,1029.02
2019-03-21T10:41:16.284Z,1028.97
2019-03-21T10:42:16.251Z,1028.89
2019-03-21T10:43:16.237Z,1028.87
2019-03-21T10:44:16.233Z,1028.84
2019-03-21T10:45:16.221Z,1028.87
2019-03-21T10:46:16.242Z,1028.83
2019-03-21T10:47:16.201Z,1028.85
2019-03-21T10:48:16.218Z,1028.85
2019-03-21T10:49:16.180Z,1028.83
2019-03-21T10:50:16.171Z,1028.85
2019-03-21T10:51:16.160Z,1028.83
2019-03-21T10:52:16.168Z,1028.80
2019-03-21T10:53:16.149Z,1028.81
2019-03-21T10:54:16.137Z,1028.84
2019-03-21T10:55:16.118Z,1028.84
2019-03-21T10:56:16.106Z,1028.80
2019-03-21T10:57:16.119Z,1028.78
2019-03-21T10:58:16.113Z,1028.83
2019-03-21T10:59:16.086Z,1028.88
2019-03-21T11:00:16.095Z,1028.89
2019-03-21T11:01:16.066Z,1028.87
2019-03-21T11:02:16.073Z,1028.87
2019-03-21T11:03:16.044Z,1028.90
2019-03-21T11:04:16.039Z,1028.90
2019-03-21T11:05:16.035Z,1028.95
2019-03-21T11:06:16.009Z,1028.92
2019-03-21T11:07:16.022Z,1028.89
2019-03-21T11:08:15.994Z,1028.91
2019-03-21T11:09:15.978Z,1028.89
2019-03-21T11:10:15.968Z,1028.87
2019-03-21T11:11:16.021Z,1028.89
2019-03-21T11:12:15.951Z,1028.73
2019-03-21T11:13:15.967Z,1028.66
2019-03-21T11:14:15.930Z,1028.73
2019-03-21T11:15:15.922Z,1028.67
2019-03-21T11:16:15.926Z,1028.71
2019-03-21T11:17:15.899Z,1028.71
2019-03-21T11:18:15.916Z,1028.83
2019-03-21T11:19:15.881Z,1028.80
2019-03-21T11:20:15.884Z,1028.85
2019-03-21T11:21:15.857Z,1028.78
2019-03-21T11:22:15.848Z,1028.85
2019-03-21T11:23:15.854Z,1028.90
2019-03-21T11:24:15.828Z,1028.91
2019-03-21T11:25:23.360Z,1028.87
2019-03-21T11:26:15.807Z,1028.90
2019-03-21T11:27:15.797Z,1028.86
2019-03-21T11:28:17.779Z,1028.81
2019-03-21T11:29:15.798Z,1028.83
2019-03-21T11:30:16.364Z,1028.81
2019-03-21T11:31:15.789Z,1028.85
2019-03-21T11:32:15.754Z,1028.80
2019-03-21T11:33:15.784Z,1028.83
2019-03-21T11:34:15.733Z,1028.74
2019-03-21T11:35:15.723Z,1028.71
2019-03-21T11:36:15.713Z,1028.71
2019-03-21T11:37:15.711Z,1028.72
2019-03-21T11:38:15.693Z,1028.68
2019-03-21T11:39:15.703Z,1028.67
2019-03-21T11:40:15.675Z,1028.69
2019-03-21T11:41:15.673Z,1028.69
2019-03-21T11:42:15.649Z,1028.62
2019-03-21T11:43:15.675Z,1028.63
2019-03-21T11:44:15.650Z,1028.65
2019-03-21T11:45:15.620Z,1028.62
2019-03-21T11:46:15.619Z,1028.63
2019-03-21T11:47:15.599Z,1028.60
2019-03-21T11:48:15.589Z,1028.62
2019-03-21T11:49:15.604Z,1028.61
2019-03-21T11:50:15.577Z,1028.65
2019-03-21T11:51:15.565Z,1028.57
2019-03-21T11:52:18.355Z,1028.60
2019-03-21T11:53:15.583Z,1028.59
2019-03-21T11:54:15.562Z,1028.63
2019-03-21T11:55:15.527Z,1028.62
2019-03-21T11:56:15.511Z,1028.59
2019-03-21T11:57:15.503Z,1028.60
2019-03-21T11:58:17.553Z,1028.57
2019-03-21T11:59:15.487Z,1028.61
2019-03-21T12:00:15.511Z,1028.56
2019-03-21T12:01:15.478Z,1028.55
2019-03-21T12:02:26.243Z,1028.57
2019-03-21T12:03:16.450Z,1028.55
2019-03-21T12:04:15.436Z,1028.51
2019-03-21T12:05:15.448Z,1028.55